Time;durP1;ratioP1;P1;durP2;ratioP2;P2;SDS_P1;SDS_P2;PMS_P1;PMS_P2;Temp;Humidity;BMP_temperature;BMP_pressure;BME280_temperature;BME280_humidity;BME280_pressure;Samples;Min_cycle;Max_cycle;Signal;HPM_P1;HPM_P2
2022/05/24 00:00:28;;;;;;;13.05;3.42;;;20.60;99.90;;;;;;5024469;28;20034;-75
2022/05/24 00:02:54;;;;;;;11.40;4.00;;;20.60;99.90;;;;;;5051234;28;20484;-75
2022/05/24 00:05:24;;;;;;;8.88;3.47;;;20.60;99.90;;;;;;5017268;28;20057;-74
2022/05/24 00:07:51;;;;;;;10.57;3.60;;;20.60;99.90;;;;;;5022831;28;20045;-75
2022/05/24 00:10:24;;;;;;;13.52;5.28;;;20.70;99.90;;;;;;5032663;28;20490;-76
2022/05/24 00:12:52;;;;;;;14.73;3.78;;;20.60;99.90;;;;;;5024187;28;20075;-76
2022/05/24 00:15:20;;;;;;;8.93;3.08;;;20.60;99.90;;;;;;5027224;28;20049;-74
2022/05/24 00:17:58;;;;;;;12.27;3.58;;;20.60;99.90;;;;;;5025334;28;20048;-76
2022/05/24 00:20:31;;;;;;;7.88;3.10;;;20.60;99.90;;;;;;5019763;28;20037;-73
2022/05/24 00:22:58;;;;;;;9.80;2.88;;;20.70;99.90;;;;;;5054217;28;20045;-75
2022/05/24 00:25:25;;;;;;;10.63;3.50;;;20.60;99.90;;;;;;5054979;28;20037;-75
2022/05/24 00:27:53;;;;;;;9.60;3.13;;;20.50;99.90;;;;;;5024732;28;20144;-74
2022/05/24 00:30:19;;;;;;;8.48;3.40;;;20.60;99.90;;;;;;5026088;28;20065;-74
2022/05/24 00:32:46;;;;;;;11.73;3.58;;;20.60;99.90;;;;;;5022435;28;20041;-75
2022/05/24 00:35:13;;;;;;;10.85;3.47;;;20.60;99.90;;;;;;5019009;28;20046;-75
2022/05/24 00:37:41;;;;;;;11.75;4.38;;;20.60;99.90;;;;;;5036788;28;20913;-75
2022/05/24 00:40:10;;;;;;;8.93;3.10;;;20.60;99.90;;;;;;5027881;28;20060;-74
2022/05/24 00:42:38;;;;;;;8.35;3.38;;;20.50;99.90;;;;;;5017641;28;20060;-75
2022/05/24 00:45:17;;;;;;;10.52;3.40;;;20.50;99.90;;;;;;5022899;28;20045;-76
2022/05/24 00:47:53;;;;;;;9.68;3.80;;;20.50;99.90;;;;;;5021075;28;20477;-75
2022/05/24 00:50:25;;;;;;;11.02;3.15;;;20.50;99.90;;;;;;5016032;28;20041;-73
2022/05/24 00:53:13;;;;;;;10.82;3.58;;;20.50;99.90;;;;;;5057100;28;20045;-74
2022/05/24 00:56:12;;;;;;;9.82;3.72;;;20.40;99.90;;;;;;5021082;28;20088;-74
2022/05/24 00:58:48;;;;;;;9.85;3.95;;;20.40;99.90;;;;;;5023047;28;20042;-74
2022/05/24 01:01:36;;;;;;;9.30;3.35;;;20.50;99.90;;;;;;5036449;28;20037;-74
2022/05/24 01:04:04;;;;;;;11.52;4.10;;;20.50;99.90;;;;;;5040575;28;20038;-74
2022/05/24 01:06:32;;;;;;;9.80;3.80;;;20.50;99.90;;;;;;5039298;28;20456;-75
2022/05/24 01:09:02;;;;;;;11.57;3.58;;;20.50;99.90;;;;;;5019542;28;20123;-75
2022/05/24 01:11:32;;;;;;;11.35;3.80;;;20.40;99.90;;;;;;5058155;28;20037;-75
2022/05/24 01:13:59;;;;;;;12.82;3.97;;;20.50;99.90;;;;;;5022679;28;20392;-77
2022/05/24 01:16:25;;;;;;;11.55;4.10;;;20.40;99.90;;;;;;5034325;28;20036;-75
2022/05/24 01:18:51;;;;;;;9.98;3.53;;;20.40;99.90;;;;;;5035515;28;20021;-75
2022/05/24 01:21:18;;;;;;;15.00;4.00;;;20.40;99.90;;;;;;5022841;28;20425;-75
2022/05/24 01:23:57;;;;;;;12.40;3.53;;;20.40;99.90;;;;;;5023498;28;20083;-76
2022/05/24 01:26:45;;;;;;;11.18;3.85;;;20.40;99.90;;;;;;5008496;28;20114;-75
2022/05/24 01:29:20;;;;;;;9.93;3.28;;;20.50;99.90;;;;;;5049879;28;20025;-75
2022/05/24 01:37:20;;;;;;;13.63;3.85;;;20.40;99.90;;;;;;5021139;28;20073;-73
2022/05/24 01:39:51;;;;;;;14.50;3.65;;;20.40;99.90;;;;;;5005421;28;20103;-75
2022/05/24 01:42:17;;;;;;;14.45;3.58;;;20.50;99.90;;;;;;5024126;28;20060;-75
2022/05/24 01:45:06;;;;;;;12.15;3.95;;;20.50;99.90;;;;;;5017451;28;20077;-74
2022/05/24 01:47:33;;;;;;;9.70;3.25;;;20.50;99.90;;;;;;5019853;28;20100;-75
2022/05/24 01:50:03;;;;;;;12.00;3.70;;;20.40;99.90;;;;;;5054249;28;20046;-75
2022/05/24 01:52:36;;;;;;;10.60;4.10;;;20.40;99.90;;;;;;5021433;28;20095;-74
2022/05/24 01:55:13;;;;;;;10.75;3.60;;;20.50;99.90;;;;;;5036432;28;20037;-75
2022/05/24 01:57:48;;;;;;;12.15;4.25;;;20.40;99.90;;;;;;5034440;28;20125;-76
2022/05/24 02:00:18;;;;;;;21.92;4.05;;;20.40;99.90;;;;;;5025189;28;20045;-75
2022/05/24 02:02:46;;;;;;;14.02;3.55;;;20.50;99.90;;;;;;5022085;28;20588;-74
2022/05/24 02:05:14;;;;;;;11.30;3.70;;;20.40;99.90;;;;;;5018456;28;20825;-74
2022/05/24 02:07:40;;;;;;;11.10;4.20;;;20.50;99.90;;;;;;5024634;28;20409;-75
2022/05/24 02:10:07;;;;;;;13.02;3.50;;;20.50;99.90;;;;;;5035319;28;20037;-74
2022/05/24 02:12:40;;;;;;;9.63;3.90;;;20.50;99.90;;;;;;5019470;28;20110;-74
2022/05/24 02:15:14;;;;;;;10.23;3.90;;;20.50;99.90;;;;;;5021429;28;20080;-76
2022/05/24 02:17:57;;;;;;;14.35;4.03;;;20.50;99.90;;;;;;5053699;28;20124;-74
2022/05/24 02:20:30;;;;;;;10.82;3.40;;;20.50;99.90;;;;;;5008318;28;20052;-74
2022/05/24 02:22:56;;;;;;;10.68;3.83;;;20.50;99.90;;;;;;5031890;28;20096;-74
2022/05/24 02:25:49;;;;;;;10.18;3.75;;;20.50;99.90;;;;;;5021826;28;20080;-74
2022/05/24 02:28:16;;;;;;;11.38;3.47;;;20.40;99.90;;;;;;5032723;28;20077;-73
2022/05/24 02:30:55;;;;;;;14.48;4.00;;;20.40;99.90;;;;;;5033891;28;20125;-74
2022/05/24 02:33:23;;;;;;;12.43;3.28;;;20.50;99.90;;;;;;5033555;28;20048;-75
2022/05/24 02:35:49;;;;;;;9.02;2.97;;;20.40;99.90;;;;;;5040009;28;20092;-74
2022/05/24 02:38:15;;;;;;;10.63;3.53;;;20.40;99.90;;;;;;5020050;28;20053;-75
2022/05/24 02:43:27;;;;;;;12.73;3.85;;;20.40;99.90;;;;;;5025064;28;20067;-75
2022/05/24 02:45:53;;;;;;;9.68;3.45;;;20.50;99.90;;;;;;5023954;28;20397;-75
2022/05/24 02:48:19;;;;;;;12.02;3.53;;;20.50;99.90;;;;;;5015829;28;20061;-74
2022/05/24 02:50:46;;;;;;;10.00;3.13;;;20.50;99.90;;;;;;5039945;28;20052;-75
2022/05/24 02:53:12;;;;;;;9.35;3.58;;;20.60;99.90;;;;;;5036489;28;20497;-74
2022/05/24 02:55:38;;;;;;;10.80;3.30;;;20.60;99.90;;;;;;5003640;28;20042;-78
2022/05/24 02:58:04;;;;;;;12.65;3.60;;;20.60;99.90;;;;;;5046976;28;20044;-73
2022/05/24 03:00:30;;;;;;;14.13;3.80;;;20.60;99.90;;;;;;5033262;28;20034;-74
2022/05/24 03:02:57;;;;;;;10.82;3.15;;;20.60;99.90;;;;;;5020037;28;20417;-74
2022/05/24 03:05:25;;;;;;;11.60;4.00;;;20.60;99.90;;;;;;5020025;28;20064;-74
2022/05/24 03:10:38;;;;;;;12.35;3.05;;;20.60;99.90;;;;;;5020340;28;20046;-73
2022/05/24 03:15:50;;;;;;;10.02;3.35;;;20.50;99.90;;;;;;5033939;28;20128;-73
2022/05/24 03:18:18;;;;;;;9.77;3.35;;;20.50;99.90;;;;;;5019484;28;20472;-75
2022/05/24 03:20:45;;;;;;;10.57;3.47;;;20.60;99.90;;;;;;5021414;28;20126;-75
2022/05/24 03:23:13;;;;;;;11.10;3.60;;;20.60;99.90;;;;;;5031416;28;20511;-75
2022/05/24 03:25:39;;;;;;;14.18;4.00;;;20.50;99.90;;;;;;5007288;28;20037;-75
2022/05/24 03:28:07;;;;;;;13.98;3.90;;;20.50;99.90;;;;;;5017655;28;20132;-74
2022/05/24 03:30:38;;;;;;;13.02;3.45;;;20.50;99.90;;;;;;5018673;28;20045;-75
2022/05/24 03:33:04;;;;;;;11.18;3.80;;;20.50;99.90;;;;;;5023568;28;20046;-74
2022/05/24 03:35:30;;;;;;;13.48;3.88;;;20.60;99.90;;;;;;5020096;28;20038;-74
2022/05/24 03:37:56;;;;;;;14.77;3.63;;;20.60;99.90;;;;;;5018437;28;20034;-74
2022/05/24 03:40:22;;;;;;;11.35;3.38;;;20.60;99.90;;;;;;5026802;28;21997;-74
2022/05/24 03:42:51;;;;;;;12.20;3.95;;;20.70;99.90;;;;;;5013612;28;20038;-75
2022/05/24 03:45:18;;;;;;;9.55;3.47;;;20.80;99.90;;;;;;5021278;28;20669;-74
2022/05/24 03:47:45;;;;;;;11.27;3.20;;;20.70;99.90;;;;;;5021549;28;20063;-74
2022/05/24 03:50:12;;;;;;;12.38;3.53;;;20.70;99.90;;;;;;5020595;28;20042;-75
2022/05/24 03:52:38;;;;;;;10.88;3.42;;;20.70;99.90;;;;;;5034197;28;20396;-73
2022/05/24 03:55:05;;;;;;;13.32;3.80;;;20.70;99.90;;;;;;5020087;28;20484;-74
2022/05/24 04:00:19;;;;;;;9.88;3.10;;;20.70;99.90;;;;;;5023129;28;20052;-75
2022/05/24 04:02:46;;;;;;;8.25;3.22;;;20.80;99.90;;;;;;5037610;28;20497;-76
2022/05/24 04:05:12;;;;;;;12.10;3.45;;;20.70;99.90;;;;;;5023933;28;20056;-75
2022/05/24 04:07:39;;;;;;;13.50;3.55;;;20.70;99.90;;;;;;5022168;28;20041;-74
2022/05/24 04:10:08;;;;;;;13.70;3.78;;;20.60;99.90;;;;;;5023368;28;20153;-75
2022/05/24 04:12:34;;;;;;;11.95;3.75;;;20.60;99.90;;;;;;5025055;28;20485;-74
2022/05/24 04:15:01;;;;;;;14.57;4.30;;;20.70;99.90;;;;;;5048940;28;20037;-73
2022/05/24 04:17:27;;;;;;;16.42;3.78;;;20.70;99.90;;;;;;5012472;28;20540;-74
2022/05/24 04:19:53;;;;;;;11.68;3.55;;;20.70;99.90;;;;;;5047196;28;20045;-74
2022/05/24 04:22:19;;;;;;;15.95;3.75;;;20.70;99.90;;;;;;5053062;28;20436;-75
2022/05/24 04:24:46;;;;;;;14.98;3.65;;;20.60;99.90;;;;;;5026587;28;20408;-75
2022/05/24 04:27:13;;;;;;;15.20;4.60;;;20.60;99.90;;;;;;5058520;28;20060;-74
2022/05/24 04:29:41;;;;;;;11.70;3.47;;;20.60;99.90;;;;;;5019569;28;20589;-74
2022/05/24 04:32:09;;;;;;;13.23;3.95;;;20.60;99.90;;;;;;5057847;28;20091;-74
2022/05/24 04:34:36;;;;;;;14.40;3.25;;;20.60;99.90;;;;;;5009260;28;20096;-75
2022/05/24 04:37:05;;;;;;;13.90;4.00;;;20.60;99.90;;;;;;5004939;28;20038;-74
2022/05/24 04:39:32;;;;;;;15.27;3.72;;;20.60;99.90;;;;;;5052036;28;20041;-75
2022/05/24 04:44:45;;;;;;;10.73;3.08;;;20.50;99.90;;;;;;5001904;28;20053;-74
2022/05/24 04:47:13;;;;;;;13.18;3.63;;;20.50;99.90;;;;;;5043722;28;20097;-74
2022/05/24 04:49:44;;;;;;;15.35;4.35;;;20.60;99.90;;;;;;5038830;28;20037;-75
2022/05/24 04:52:11;;;;;;;11.48;3.72;;;20.50;99.90;;;;;;5037690;28;20116;-74
2022/05/24 04:54:39;;;;;;;14.07;3.75;;;20.60;99.90;;;;;;5039565;28;20079;-74
2022/05/24 04:57:06;;;;;;;15.18;3.88;;;20.70;99.90;;;;;;5023942;28;20382;-75
2022/05/24 04:59:32;;;;;;;12.07;4.30;;;20.60;99.90;;;;;;5021713;28;20037;-75
2022/05/24 05:01:59;;;;;;;13.63;4.15;;;20.50;99.90;;;;;;5020206;28;20048;-74
2022/05/24 05:04:25;;;;;;;14.48;4.15;;;20.60;99.90;;;;;;5019464;28;20045;-75
2022/05/24 05:06:51;;;;;;;15.75;3.97;;;20.60;99.90;;;;;;5020774;28;20173;-74
2022/05/24 05:09:18;;;;;;;14.63;4.00;;;20.60;99.90;;;;;;5023937;28;20128;-74
2022/05/24 05:11:44;;;;;;;14.32;4.30;;;20.60;99.90;;;;;;5034892;28;20037;-75
2022/05/24 05:14:10;;;;;;;11.70;3.42;;;20.60;99.90;;;;;;5025157;28;20037;-74
2022/05/24 05:16:37;;;;;;;15.15;4.10;;;20.60;99.90;;;;;;5036309;28;20974;-74
2022/05/24 05:19:12;;;;;;;14.55;4.38;;;20.50;99.90;;;;;;5017974;28;20378;-75
2022/05/24 05:21:40;;;;;;;11.30;4.28;;;20.50;99.90;;;;;;5038427;28;20092;-75
2022/05/24 05:24:08;;;;;;;17.08;4.93;;;20.50;99.90;;;;;;5022775;28;20105;-76
2022/05/24 05:26:34;;;;;;;15.10;4.03;;;20.50;99.90;;;;;;5026877;28;20061;-74
2022/05/24 05:29:00;;;;;;;13.40;4.00;;;20.50;99.90;;;;;;5023960;28;20037;-75
2022/05/24 05:31:26;;;;;;;15.43;3.78;;;20.60;99.90;;;;;;5023006;28;20041;-74
2022/05/24 05:33:57;;;;;;;13.30;4.05;;;20.60;99.90;;;;;;5023004;28;20044;-73
2022/05/24 05:36:24;;;;;;;18.70;4.00;;;20.60;99.90;;;;;;5023047;28;20034;-74
2022/05/24 05:38:51;;;;;;;15.65;3.92;;;20.70;99.90;;;;;;5022663;28;20034;-75
2022/05/24 05:41:21;;;;;;;14.18;3.85;;;20.60;99.90;;;;;;5036052;28;20045;-75
2022/05/24 05:43:50;;;;;;;13.00;3.42;;;20.70;99.90;;;;;;5025122;28;20041;-75
2022/05/24 05:46:18;;;;;;;15.18;3.97;;;20.70;99.90;;;;;;5024248;28;20393;-75
2022/05/24 05:48:45;;;;;;;10.52;3.58;;;20.80;99.90;;;;;;5021589;28;20570;-75
2022/05/24 05:51:13;;;;;;;11.73;3.70;;;20.80;99.90;;;;;;5023559;28;20099;-75
2022/05/24 05:53:39;;;;;;;14.65;3.85;;;20.80;99.90;;;;;;5003603;28;20073;-75
2022/05/24 05:56:08;;;;;;;14.88;4.00;;;20.70;99.90;;;;;;5037958;28;20120;-76
2022/05/24 05:58:37;;;;;;;16.70;3.75;;;20.80;99.90;;;;;;5023585;28;20034;-75
2022/05/24 06:01:03;;;;;;;14.00;3.80;;;20.80;99.90;;;;;;5021423;28;20037;-74
2022/05/24 06:03:30;;;;;;;11.45;3.33;;;20.70;99.90;;;;;;5028787;28;20044;-75
2022/05/24 06:06:00;;;;;;;15.23;3.78;;;20.70;99.90;;;;;;5039824;28;20082;-75
2022/05/24 06:08:27;;;;;;;13.73;3.47;;;20.80;99.90;;;;;;5035984;28;20041;-76
2022/05/24 06:10:53;;;;;;;13.50;3.70;;;20.80;99.90;;;;;;5021989;28;20033;-75
2022/05/24 06:13:19;;;;;;;17.65;3.92;;;20.80;99.90;;;;;;5021636;28;20091;-75
2022/05/24 06:15:49;;;;;;;16.67;3.40;;;20.80;99.90;;;;;;5023481;28;20041;-74
2022/05/24 06:18:15;;;;;;;13.55;3.97;;;20.70;99.90;;;;;;5020383;28;20072;-75
2022/05/24 06:20:41;;;;;;;25.45;4.15;;;20.70;99.90;;;;;;5043860;28;20041;-75
2022/05/24 06:23:08;;;;;;;13.13;3.67;;;20.80;99.90;;;;;;5039242;28;20034;-76
2022/05/24 06:25:34;;;;;;;17.27;3.55;;;20.70;99.90;;;;;;5038076;28;20042;-75
2022/05/24 06:28:00;;;;;;;15.13;3.53;;;20.60;99.90;;;;;;5025001;28;20068;-75
2022/05/24 06:30:28;;;;;;;15.57;4.30;;;20.70;99.90;;;;;;5051904;28;20048;-76
2022/05/24 06:32:54;;;;;;;15.55;4.10;;;20.70;99.90;;;;;;5035182;28;20087;-75
2022/05/24 06:35:20;;;;;;;15.50;3.83;;;20.80;99.90;;;;;;5008014;28;20097;-75
2022/05/24 06:37:48;;;;;;;12.90;3.50;;;21.00;99.90;;;;;;5037454;28;20052;-74
2022/05/24 06:40:17;;;;;;;18.63;4.32;;;20.90;99.90;;;;;;5021714;28;20123;-75
2022/05/24 06:42:43;;;;;;;19.10;3.67;;;21.00;99.90;;;;;;5022267;28;20135;-75
2022/05/24 06:45:11;;;;;;;12.27;4.05;;;21.10;99.90;;;;;;5020177;28;20045;-75
2022/05/24 06:47:37;;;;;;;14.05;3.63;;;21.10;99.90;;;;;;5024450;28;20037;-75
2022/05/24 06:50:05;;;;;;;20.73;3.90;;;21.20;99.90;;;;;;5026171;28;20041;-75
2022/05/24 06:52:32;;;;;;;18.48;4.00;;;21.10;99.90;;;;;;5021438;28;20386;-75
2022/05/24 06:54:58;;;;;;;13.40;3.38;;;21.10;99.90;;;;;;5021055;28;20041;-76
2022/05/24 06:57:25;;;;;;;16.77;3.65;;;21.10;99.90;;;;;;5019107;28;20030;-75
2022/05/24 07:02:36;;;;;;;16.73;4.38;;;21.20;99.90;;;;;;5022374;28;20056;-77
2022/05/24 07:05:05;;;;;;;18.95;4.13;;;21.10;99.90;;;;;;5024997;28;20164;-75
2022/05/24 07:07:33;;;;;;;21.02;4.28;;;21.20;99.90;;;;;;5042055;28;20042;-74
2022/05/24 07:10:00;;;;;;;15.75;3.35;;;21.20;99.90;;;;;;5020117;28;20125;-75
2022/05/24 07:12:27;;;;;;;16.02;3.90;;;21.20;99.90;;;;;;5026655;28;20037;-76
2022/05/24 07:14:54;;;;;;;13.73;3.63;;;21.20;99.90;;;;;;5022074;28;20065;-75
2022/05/24 07:17:21;;;;;;;17.35;4.13;;;21.20;99.90;;;;;;5044970;28;20050;-76
2022/05/24 07:19:47;;;;;;;12.38;3.42;;;21.30;99.90;;;;;;5036040;28;20061;-74
2022/05/24 07:22:14;;;;;;;17.70;3.78;;;21.20;99.90;;;;;;5029756;28;20046;-75
2022/05/24 07:24:41;;;;;;;14.63;3.40;;;21.40;99.90;;;;;;5050678;28;20425;-75
2022/05/24 07:27:12;;;;;;;13.38;3.10;;;21.50;99.90;;;;;;5005924;28;20071;-75
2022/05/24 07:29:39;;;;;;;15.27;4.88;;;21.30;99.90;;;;;;5025132;28;20038;-76
2022/05/24 07:32:06;;;;;;;16.08;4.32;;;21.30;99.90;;;;;;5038004;28;20519;-76
2022/05/24 07:34:33;;;;;;;12.27;4.07;;;21.20;99.90;;;;;;5025759;28;20033;-76
2022/05/24 07:37:01;;;;;;;14.65;4.38;;;21.30;99.90;;;;;;5021636;28;20647;-75
2022/05/24 07:39:28;;;;;;;17.33;4.25;;;21.30;99.90;;;;;;5017789;28;20034;-76
2022/05/24 07:47:29;;;;;;;14.75;4.43;;;21.20;99.90;;;;;;5043434;28;20067;-74
2022/05/24 07:49:56;;;;;;;20.60;3.58;;;21.10;99.90;;;;;;5015277;28;20037;-76
2022/05/24 07:52:22;;;;;;;16.77;4.25;;;21.20;99.90;;;;;;5030614;28;20040;-77
2022/05/24 07:54:48;;;;;;;12.32;3.40;;;21.40;99.90;;;;;;5030275;28;20090;-75
2022/05/24 07:57:14;;;;;;;16.33;3.78;;;21.20;99.90;;;;;;5020432;28;20113;-76
2022/05/24 07:59:43;;;;;;;14.63;3.60;;;21.50;99.90;;;;;;5016989;28;20045;-75
2022/05/24 08:02:09;;;;;;;12.43;3.30;;;21.50;99.90;;;;;;5040884;28;20829;-76
2022/05/24 08:04:36;;;;;;;12.82;3.70;;;21.30;99.90;;;;;;5020284;28;20677;-75
2022/05/24 08:07:06;;;;;;;16.90;4.07;;;21.50;99.90;;;;;;5021567;28;20045;-75
2022/05/24 08:09:33;;;;;;;12.30;3.70;;;21.70;99.90;;;;;;5015948;28;20037;-75
2022/05/24 08:12:00;;;;;;;12.48;3.10;;;21.70;99.90;;;;;;5027006;28;20623;-77
2022/05/24 08:14:26;;;;;;;13.75;4.00;;;21.40;99.90;;;;;;5016713;28;20038;-75
2022/05/24 08:16:51;;;;;;;13.40;4.80;;;21.60;99.90;;;;;;5018689;28;20069;-76
2022/05/24 08:19:18;;;;;;;15.68;3.60;;;21.60;99.90;;;;;;5041500;28;20415;-75
2022/05/24 08:21:44;;;;;;;12.35;3.63;;;21.70;99.90;;;;;;5052342;28;20052;-75
2022/05/24 08:24:10;;;;;;;17.02;4.15;;;21.80;99.90;;;;;;5016108;28;20038;-75
2022/05/24 08:26:37;;;;;;;13.98;3.88;;;21.70;99.90;;;;;;5024250;28;20100;-75
2022/05/24 08:29:05;;;;;;;14.85;3.88;;;21.70;99.90;;;;;;5019441;28;20045;-75
2022/05/24 08:31:31;;;;;;;11.88;3.55;;;21.70;99.90;;;;;;5014002;28;20036;-75
2022/05/24 08:33:57;;;;;;;14.57;3.92;;;21.60;99.90;;;;;;5025981;28;20056;-75
2022/05/24 08:36:23;;;;;;;15.65;4.30;;;21.60;99.90;;;;;;5025511;28;20140;-76
2022/05/24 08:38:51;;;;;;;11.65;3.97;;;21.50;99.90;;;;;;5003509;28;20093;-75
2022/05/24 08:41:43;;;;;;;16.52;3.38;;;21.60;99.90;;;;;;5046351;28;20051;-75
2022/05/24 08:50:05;;;;;;;10.93;3.17;;;21.30;99.90;;;;;;5008439;28;20134;-76
2022/05/24 08:52:36;;;;;;;16.67;4.00;;;21.20;99.90;;;;;;5025436;28;20034;-75
2022/05/24 08:55:04;;;;;;;14.95;3.70;;;21.30;99.90;;;;;;5020113;28;20197;-74
2022/05/24 08:57:53;;;;;;;11.07;3.80;;;21.20;99.90;;;;;;5026747;28;20037;-75
2022/05/24 09:00:24;;;;;;;11.35;2.75;;;21.00;99.90;;;;;;5036976;28;20037;-75
2022/05/24 09:02:50;;;;;;;8.93;2.70;;;20.70;99.90;;;;;;5015241;28;20045;-74
2022/05/24 09:05:32;;;;;;;10.23;2.40;;;20.10;99.90;;;;;;5014642;28;20275;-74
2022/05/24 09:08:30;;;;;;;6.45;1.80;;;19.70;99.90;;;;;;5013906;28;20373;-75
2022/05/24 09:11:16;;;;;;;7.60;2.22;;;19.30;99.90;;;;;;5023280;28;20057;-75
2022/05/24 09:14:03;;;;;;;10.65;2.10;;;19.30;99.90;;;;;;5022944;28;20038;-74
2022/05/24 09:16:56;;;;;;;6.22;2.08;;;19.40;99.90;;;;;;5011872;28;20095;-75
2022/05/24 09:19:24;;;;;;;;;;;19.40;99.90;;;;;;5013187;28;20041;-74
2022/05/24 09:21:53;;;;;;;7.57;1.80;;;19.60;99.90;;;;;;5048956;28;19932;-75
2022/05/24 09:24:29;;;;;;;5.50;1.70;;;19.70;99.90;;;;;;5016332;28;20103;-75
2022/05/24 09:27:19;;;;;;;8.27;2.10;;;19.80;99.90;;;;;;5049312;28;20038;-76
2022/05/24 09:30:10;;;;;;;5.63;1.67;;;19.90;99.90;;;;;;5025610;28;20038;-75
2022/05/24 09:32:48;;;;;;;7.55;2.00;;;19.90;99.90;;;;;;5010837;28;20094;-76
2022/05/24 09:35:21;;;;;;;8.77;2.03;;;20.20;99.90;;;;;;5013223;28;20133;-76
2022/05/24 09:38:03;;;;;;;;;;;20.30;99.90;;;;;;5038613;28;20127;-76
2022/05/24 09:40:32;;;;;;;15.13;2.42;;;20.50;99.90;;;;;;5056223;28;19972;-75
2022/05/24 09:43:29;;;;;;;16.88;4.18;;;20.60;99.90;;;;;;5021378;28;20038;-74
2022/05/24 09:46:07;;;;;;;9.93;2.60;;;20.70;99.90;;;;;;5020419;28;20103;-75
2022/05/24 09:48:39;;;;;;;9.20;1.90;;;21.00;99.90;;;;;;5037336;28;20068;-74
2022/05/24 09:51:11;;;;;;;10.20;2.40;;;21.40;99.90;;;;;;5024356;28;20049;-74
2022/05/24 09:53:49;;;;;;;10.23;2.33;;;21.70;99.90;;;;;;5012716;28;20017;-76
2022/05/24 09:56:26;;;;;;;10.25;2.00;;;21.80;99.90;;;;;;5022853;28;20040;-74
2022/05/24 09:59:00;;;;;;;9.70;2.53;;;21.70;99.90;;;;;;5006849;28;20037;-74
2022/05/24 10:01:39;;;;;;;9.02;2.03;;;21.50;99.90;;;;;;5013606;28;20064;-74
2022/05/24 10:04:18;;;;;;;9.88;2.60;;;21.60;99.90;;;;;;5017794;28;20567;-74
2022/05/24 10:06:53;;;;;;;10.55;2.55;;;21.50;99.90;;;;;;5037165;28;20048;-74
2022/05/24 10:09:19;;;;;;;7.20;2.15;;;21.60;99.90;;;;;;5027301;28;20083;-75
2022/05/24 10:12:10;;;;;;;7.20;2.05;;;21.60;99.90;;;;;;5027335;28;20075;-74
2022/05/24 10:14:53;;;;;;;13.40;2.33;;;21.70;99.90;;;;;;5016180;28;20164;-75
2022/05/24 10:17:24;;;;;;;10.02;1.70;;;21.80;99.90;;;;;;5022988;28;20055;-75
2022/05/24 10:20:06;;;;;;;9.82;1.70;;;21.90;99.90;;;;;;5037453;28;20060;-76
2022/05/24 10:22:48;;;;;;;5.90;1.88;;;21.80;99.90;;;;;;5022945;28;20465;-75
2022/05/24 10:25:35;;;;;;;7.40;1.70;;;21.60;99.90;;;;;;5034443;28;20030;-75
2022/05/24 10:28:45;;;;;;;15.35;2.20;;;21.60;99.90;;;;;;5009131;28;20054;-75
2022/05/24 10:31:35;;;;;;;10.40;2.20;;;21.50;99.90;;;;;;4992674;28;20062;-75
2022/05/24 10:40:34;;;;;;;8.13;2.10;;;22.20;99.90;;;;;;4994282;28;19964;-75
2022/05/24 10:43:26;;;;;;;10.95;2.20;;;22.40;99.90;;;;;;4994393;28;20646;-75
2022/05/24 10:46:01;;;;;;;8.23;2.10;;;22.10;99.90;;;;;;4987949;28;20046;-76
2022/05/24 10:48:48;;;;;;;7.45;2.10;;;21.80;99.90;;;;;;5007702;28;20377;-75
2022/05/24 10:51:28;;;;;;;7.90;1.88;;;21.60;99.90;;;;;;5009714;28;20037;-76
2022/05/24 10:53:58;;;;;;;8.68;2.03;;;21.40;99.90;;;;;;5032204;28;20111;-75
2022/05/24 10:56:43;;;;;;;17.52;3.05;;;21.50;99.90;;;;;;4997506;28;20136;-76
2022/05/24 10:59:44;;;;;;;7.25;2.42;;;21.50;99.90;;;;;;4987907;28;20135;-76
2022/05/24 11:02:38;;;;;;;8.77;2.45;;;21.60;99.90;;;;;;5039318;28;20053;-76
2022/05/24 11:05:16;;;;;;;8.27;2.50;;;21.70;99.90;;;;;;5043890;28;20540;-77
2022/05/24 11:07:43;;;;;;;8.18;2.10;;;21.70;99.90;;;;;;5021852;28;20076;-75
2022/05/24 11:10:43;;;;;;;9.18;2.03;;;21.70;99.90;;;;;;5025555;28;20044;-74
2022/05/24 11:13:13;;;;;;;7.70;1.95;;;21.80;99.90;;;;;;4998316;28;20041;-76
2022/05/24 11:15:47;;;;;;;9.40;1.90;;;21.90;99.90;;;;;;5009695;28;20037;-75
2022/05/24 11:18:23;;;;;;;7.60;2.00;;;22.00;99.90;;;;;;5022487;28;20048;-77
2022/05/24 11:21:09;;;;;;;4.70;1.67;;;22.20;99.90;;;;;;5046341;28;20053;-75
2022/05/24 11:23:46;;;;;;;8.68;2.00;;;22.20;99.90;;;;;;5026030;28;20481;-76
2022/05/24 11:26:11;;;;;;;5.57;1.65;;;22.60;99.90;;;;;;5026621;28;20107;-76
2022/05/24 11:28:50;;;;;;;5.88;1.65;;;22.80;99.90;;;;;;5011405;28;20124;-75
2022/05/24 11:31:43;;;;;;;7.18;1.92;;;22.90;99.90;;;;;;5008732;28;20576;-76
2022/05/24 11:34:24;;;;;;;6.00;1.85;;;23.00;99.90;;;;;;5008896;28;20444;-75
2022/05/24 11:37:30;;;;;;;4.78;1.70;;;23.00;99.90;;;;;;5013703;28;20052;-77
2022/05/24 11:40:54;;;;;;;6.18;1.67;;;22.90;99.90;;;;;;5016772;28;20049;-75
2022/05/24 11:43:35;;;;;;;7.38;1.92;;;22.80;99.90;;;;;;5010529;28;20148;-76
2022/05/24 11:46:23;;;;;;;9.52;2.10;;;22.80;99.90;;;;;;5026124;28;20038;-76
2022/05/24 11:48:52;;;;;;;8.77;2.20;;;22.80;99.90;;;;;;5013525;28;20377;-78
2022/05/24 11:51:44;;;;;;;7.07;1.90;;;22.70;99.90;;;;;;5008489;28;20034;-76
2022/05/24 11:54:17;;;;;;;9.82;2.22;;;22.70;99.90;;;;;;5022677;28;20130;-75
2022/05/24 11:57:03;;;;;;;6.30;2.30;;;22.70;99.90;;;;;;5027139;28;20042;-76
2022/05/24 11:59:48;;;;;;;9.43;3.00;;;22.50;99.90;;;;;;5023630;28;20468;-75
2022/05/24 12:08:07;;;;;;;9.07;2.35;;;22.60;99.90;;;;;;5023177;28;20044;-76
2022/05/24 12:10:47;;;;;;;9.00;2.53;;;22.70;99.90;;;;;;5017938;28;20042;-75
2022/05/24 12:13:29;;;;;;;10.35;2.70;;;22.80;99.90;;;;;;5035772;28;20037;-76
2022/05/24 12:16:01;;;;;;;7.75;2.35;;;22.90;99.90;;;;;;5021061;28;20033;-76
2022/05/24 12:18:40;;;;;;;;;;;22.80;99.90;;;;;;5021629;28;20115;-76
2022/05/24 12:21:06;;;;;;;9.25;2.45;;;22.70;99.90;;;;;;5036251;28;19917;-75
2022/05/24 12:23:37;;;;;;;8.60;3.08;;;22.50;99.90;;;;;;5038539;28;20124;-76
2022/05/24 12:26:07;;;;;;;13.10;3.05;;;22.40;99.90;;;;;;5027661;28;20107;-76
2022/05/24 12:28:36;;;;;;;6.97;2.60;;;22.20;99.90;;;;;;5025499;28;20080;-76
2022/05/24 12:31:23;;;;;;;7.65;2.60;;;22.20;99.90;;;;;;5027170;28;20049;-75
2022/05/24 12:34:02;;;;;;;10.73;2.40;;;22.10;99.90;;;;;;5032644;28;20045;-75
2022/05/24 12:36:40;;;;;;;11.38;2.47;;;22.10;99.90;;;;;;5020155;28;20030;-75
2022/05/24 12:39:11;;;;;;;10.15;2.85;;;22.20;99.90;;;;;;5023663;28;20038;-75
2022/05/24 12:41:44;;;;;;;10.68;3.10;;;22.30;99.90;;;;;;5041602;28;20037;-75
2022/05/24 12:44:21;;;;;;;10.32;4.38;;;22.60;99.90;;;;;;5029260;28;20057;-75
2022/05/24 12:47:07;;;;;;;9.25;5.07;;;22.50;99.90;;;;;;5028825;28;20025;-76
2022/05/24 12:49:50;;;;;;;14.68;5.53;;;22.50;99.90;;;;;;5007897;28;20034;-76
2022/05/24 12:52:22;;;;;;;11.45;4.85;;;22.40;99.90;;;;;;5047463;28;20477;-76
2022/05/24 12:54:50;;;;;;;11.55;5.57;;;22.40;99.90;;;;;;5025813;28;20107;-76
2022/05/24 12:57:40;;;;;;;11.27;4.97;;;22.10;99.90;;;;;;5024772;28;20057;-77
2022/05/24 13:00:09;;;;;;;9.15;5.45;;;22.00;99.90;;;;;;5037205;28;20114;-76
2022/05/24 13:02:40;;;;;;;9.73;5.15;;;22.00;99.90;;;;;;5023930;28;20060;-75
2022/05/24 13:05:09;;;;;;;9.95;5.55;;;21.90;99.90;;;;;;5021387;28;20061;-78
2022/05/24 13:07:50;;;;;;;10.27;5.18;;;21.80;99.90;;;;;;5043081;28;20060;-76
2022/05/24 13:10:25;;;;;;;12.38;5.68;;;21.70;99.90;;;;;;5019143;28;20046;-74
2022/05/24 13:12:55;;;;;;;10.48;5.35;;;21.60;99.90;;;;;;5021519;28;20034;-75
2022/05/24 13:15:30;;;;;;;11.25;5.80;;;21.50;99.90;;;;;;5024154;28;20076;-76
2022/05/24 13:18:06;;;;;;;11.48;5.88;;;21.50;99.90;;;;;;5057065;28;20046;-76
2022/05/24 13:20:46;;;;;;;11.82;4.50;;;21.30;99.90;;;;;;5026140;28;20038;-77
2022/05/24 13:23:16;;;;;;;10.68;4.22;;;21.30;99.90;;;;;;5025741;28;20630;-76
2022/05/24 13:25:50;;;;;;;10.98;3.60;;;21.40;99.90;;;;;;5027240;28;20125;-75
2022/05/24 13:28:48;;;;;;;9.88;3.75;;;21.50;99.90;;;;;;5038421;28;20488;-76
2022/05/24 13:34:29;;;;;;;13.23;3.30;;;21.30;99.90;;;;;;4987183;28;20041;-74
2022/05/24 13:37:01;;;;;;;8.43;3.20;;;21.00;99.90;;;;;;5035580;28;20041;-75
2022/05/24 13:39:53;;;;;;;13.63;3.50;;;20.70;99.90;;;;;;5016838;28;20531;-74
2022/05/24 13:42:26;;;;;;;8.43;2.97;;;20.60;99.90;;;;;;5024374;28;20037;-76
2022/05/24 13:45:19;;;;;;;9.23;3.22;;;20.60;99.90;;;;;;5028655;28;20044;-76
2022/05/24 13:47:51;;;;;;;7.97;3.38;;;20.60;99.90;;;;;;5021785;28;20072;-76
2022/05/24 13:50:19;;;;;;;7.40;3.03;;;20.50;99.90;;;;;;5012272;28;20079;-76
2022/05/24 13:52:50;;;;;;;11.52;3.08;;;20.30;99.90;;;;;;5018029;28;20122;-74
2022/05/24 13:55:31;;;;;;;19.15;3.45;;;20.50;99.90;;;;;;5022105;28;20038;-73